sensor_id;sensor_type;location;lat;lon;timestamp;P1;durP1;ratioP1;P2;durP2;ratioP2
55172;SDS011;41061;52.822;6.860;2024-01-15T00:00:32;14.88;;;1.70;;
55172;SDS011;41061;52.822;6.860;2024-01-15T00:02:58;9.85;;;2.33;;
55172;SDS011;41061;52.822;6.860;2024-01-15T00:05:24;11.73;;;1.75;;
55172;SDS011;41061;52.822;6.860;2024-01-15T00:07:50;11.55;;;1.77;;
55172;SDS011;41061;52.822;6.860;2024-01-15T00:10:16;12.23;;;1.70;;
55172;SDS011;41061;52.822;6.860;2024-01-15T00:12:42;12.90;;;2.58;;
55172;SDS011;41061;52.822;6.860;2024-01-15T00:15:08;19.10;;;2.33;;
55172;SDS011;41061;52.822;6.860;2024-01-15T00:17:34;21.15;;;2.30;;
55172;SDS011;41061;52.822;6.860;2024-01-15T00:20:01;15.25;;;1.92;;
55172;SDS011;41061;52.822;6.860;2024-01-15T00:22:27;15.23;;;2.50;;
55172;SDS011;41061;52.822;6.860;2024-01-15T00:24:53;11.90;;;1.65;;
55172;SDS011;41061;52.822;6.860;2024-01-15T00:27:19;18.23;;;1.70;;
55172;SDS011;41061;52.822;6.860;2024-01-15T00:29:45;13.85;;;2.40;;
55172;SDS011;41061;52.822;6.860;2024-01-15T00:32:11;15.55;;;1.90;;
55172;SDS011;41061;52.822;6.860;2024-01-15T00:34:37;18.75;;;2.00;;
55172;SDS011;41061;52.822;6.860;2024-01-15T00:37:03;14.80;;;1.85;;
55172;SDS011;41061;52.822;6.860;2024-01-15T00:39:32;22.23;;;2.70;;
55172;SDS011;41061;52.822;6.860;2024-01-15T00:41:58;8.48;;;1.40;;
55172;SDS011;41061;52.822;6.860;2024-01-15T00:44:24;21.05;;;2.25;;
55172;SDS011;41061;52.822;6.860;2024-01-15T00:46:50;13.07;;;1.98;;
55172;SDS011;41061;52.822;6.860;2024-01-15T00:49:16;11.40;;;1.80;;
55172;SDS011;41061;52.822;6.860;2024-01-15T00:51:43;15.57;;;2.15;;
55172;SDS011;41061;52.822;6.860;2024-01-15T00:54:09;11.45;;;2.45;;
55172;SDS011;41061;52.822;6.860;2024-01-15T00:56:35;10.95;;;1.60;;
55172;SDS011;41061;52.822;6.860;2024-01-15T00:59:01;13.32;;;3.17;;
55172;SDS011;41061;52.822;6.860;2024-01-15T01:01:27;15.48;;;1.75;;
55172;SDS011;41061;52.822;6.860;2024-01-15T01:03:53;12.27;;;1.58;;
55172;SDS011;41061;52.822;6.860;2024-01-15T01:06:19;14.30;;;1.55;;
55172;SDS011;41061;52.822;6.860;2024-01-15T01:08:45;13.23;;;1.63;;
55172;SDS011;41061;52.822;6.860;2024-01-15T01:11:15;13.43;;;1.50;;
55172;SDS011;41061;52.822;6.860;2024-01-15T01:13:41;8.80;;;1.52;;
55172;SDS011;41061;52.822;6.860;2024-01-15T01:16:07;8.50;;;1.52;;
55172;SDS011;41061;52.822;6.860;2024-01-15T01:18:34;11.30;;;1.60;;
55172;SDS011;41061;52.822;6.860;2024-01-15T01:21:00;11.05;;;1.60;;
55172;SDS011;41061;52.822;6.860;2024-01-15T01:23:26;10.82;;;1.70;;
55172;SDS011;41061;52.822;6.860;2024-01-15T01:25:52;12.35;;;2.03;;
55172;SDS011;41061;52.822;6.860;2024-01-15T01:28:18;10.57;;;2.33;;
55172;SDS011;41061;52.822;6.860;2024-01-15T01:30:45;15.63;;;2.33;;
55172;SDS011;41061;52.822;6.860;2024-01-15T01:33:11;17.35;;;2.05;;
55172;SDS011;41061;52.822;6.860;2024-01-15T01:35:37;11.30;;;1.17;;
55172;SDS011;41061;52.822;6.860;2024-01-15T01:38:03;15.32;;;1.83;;
55172;SDS011;41061;52.822;6.860;2024-01-15T01:40:29;18.13;;;1.63;;
55172;SDS011;41061;52.822;6.860;2024-01-15T01:42:55;10.73;;;1.42;;
55172;SDS011;41061;52.822;6.860;2024-01-15T01:45:21;5.97;;;1.45;;
55172;SDS011;41061;52.822;6.860;2024-01-15T01:47:47;17.17;;;1.33;;
55172;SDS011;41061;52.822;6.860;2024-01-15T01:50:14;10.85;;;2.17;;
55172;SDS011;41061;52.822;6.860;2024-01-15T01:52:40;17.08;;;2.05;;
55172;SDS011;41061;52.822;6.860;2024-01-15T01:55:06;14.07;;;1.55;;
55172;SDS011;41061;52.822;6.860;2024-01-15T01:57:33;9.00;;;1.38;;
55172;SDS011;41061;52.822;6.860;2024-01-15T02:00:00;10.93;;;1.35;;
55172;SDS011;41061;52.822;6.860;2024-01-15T02:02:27;14.88;;;1.80;;
55172;SDS011;41061;52.822;6.860;2024-01-15T02:04:53;8.23;;;1.15;;
55172;SDS011;41061;52.822;6.860;2024-01-15T02:07:19;7.95;;;1.15;;
55172;SDS011;41061;52.822;6.860;2024-01-15T02:09:45;7.50;;;1.00;;
55172;SDS011;41061;52.822;6.860;2024-01-15T02:12:11;4.38;;;0.90;;
55172;SDS011;41061;52.822;6.860;2024-01-15T02:14:37;5.80;;;0.85;;
55172;SDS011;41061;52.822;6.860;2024-01-15T02:17:05;8.18;;;0.82;;
55172;SDS011;41061;52.822;6.860;2024-01-15T02:19:31;5.90;;;0.95;;
55172;SDS011;41061;52.822;6.860;2024-01-15T02:21:57;4.80;;;1.00;;
55172;SDS011;41061;52.822;6.860;2024-01-15T02:24:23;4.65;;;0.70;;
55172;SDS011;41061;52.822;6.860;2024-01-15T02:26:49;2.83;;;0.68;;
55172;SDS011;41061;52.822;6.860;2024-01-15T02:29:15;2.90;;;0.50;;
55172;SDS011;41061;52.822;6.860;2024-01-15T02:31:41;4.53;;;0.60;;
55172;SDS011;41061;52.822;6.860;2024-01-15T02:34:07;7.78;;;0.82;;
55172;SDS011;41061;52.822;6.860;2024-01-15T02:36:33;4.30;;;0.70;;
55172;SDS011;41061;52.822;6.860;2024-01-15T02:38:59;5.60;;;0.88;;
55172;SDS011;41061;52.822;6.860;2024-01-15T02:41:25;8.55;;;0.90;;
55172;SDS011;41061;52.822;6.860;2024-01-15T02:43:51;6.88;;;0.82;;
55172;SDS011;41061;52.822;6.860;2024-01-15T02:46:17;5.22;;;1.05;;
55172;SDS011;41061;52.822;6.860;2024-01-15T02:48:43;10.35;;;1.98;;
55172;SDS011;41061;52.822;6.860;2024-01-15T02:51:09;16.33;;;1.55;;
55172;SDS011;41061;52.822;6.860;2024-01-15T02:53:36;6.45;;;0.90;;
55172;SDS011;41061;52.822;6.860;2024-01-15T02:56:02;11.02;;;1.02;;
55172;SDS011;41061;52.822;6.860;2024-01-15T02:58:29;14.85;;;1.30;;
55172;SDS011;41061;52.822;6.860;2024-01-15T03:00:55;6.55;;;1.40;;
55172;SDS011;41061;52.822;6.860;2024-01-15T03:03:21;10.70;;;1.45;;
55172;SDS011;41061;52.822;6.860;2024-01-15T03:05:47;9.48;;;1.20;;
55172;SDS011;41061;52.822;6.860;2024-01-15T03:08:13;4.47;;;0.93;;
55172;SDS011;41061;52.822;6.860;2024-01-15T03:10:39;7.38;;;1.45;;
55172;SDS011;41061;52.822;6.860;2024-01-15T03:13:05;10.48;;;1.38;;
55172;SDS011;41061;52.822;6.860;2024-01-15T03:15:31;11.70;;;1.35;;
55172;SDS011;41061;52.822;6.860;2024-01-15T03:17:58;6.00;;;0.98;;
55172;SDS011;41061;52.822;6.860;2024-01-15T03:20:24;7.85;;;1.52;;
55172;SDS011;41061;52.822;6.860;2024-01-15T03:22:50;9.85;;;1.08;;
55172;SDS011;41061;52.822;6.860;2024-01-15T03:25:16;6.22;;;1.63;;
55172;SDS011;41061;52.822;6.860;2024-01-15T03:27:42;6.85;;;1.02;;
55172;SDS011;41061;52.822;6.860;2024-01-15T03:30:08;7.00;;;0.93;;
55172;SDS011;41061;52.822;6.860;2024-01-15T03:32:34;7.40;;;1.10;;
55172;SDS011;41061;52.822;6.860;2024-01-15T03:35:00;14.02;;;2.03;;
55172;SDS011;41061;52.822;6.860;2024-01-15T03:37:27;8.57;;;1.00;;
55172;SDS011;41061;52.822;6.860;2024-01-15T03:39:53;10.02;;;1.52;;
55172;SDS011;41061;52.822;6.860;2024-01-15T03:42:19;5.25;;;1.10;;
55172;SDS011;41061;52.822;6.860;2024-01-15T03:44:45;7.22;;;1.52;;
55172;SDS011;41061;52.822;6.860;2024-01-15T03:47:11;11.68;;;1.55;;
55172;SDS011;41061;52.822;6.860;2024-01-15T03:49:37;11.43;;;1.13;;
55172;SDS011;41061;52.822;6.860;2024-01-15T03:52:03;8.18;;;1.33;;
55172;SDS011;41061;52.822;6.860;2024-01-15T03:54:29;11.60;;;2.28;;
55172;SDS011;41061;52.822;6.860;2024-01-15T03:56:55;13.40;;;1.10;;
55172;SDS011;41061;52.822;6.860;2024-01-15T03:59:22;9.77;;;1.10;;
55172;SDS011;41061;52.822;6.860;2024-01-15T04:01:51;21.08;;;1.70;;
55172;SDS011;41061;52.822;6.860;2024-01-15T04:04:17;9.90;;;1.58;;
55172;SDS011;41061;52.822;6.860;2024-01-15T04:06:44;12.48;;;1.85;;
55172;SDS011;41061;52.822;6.860;2024-01-15T04:09:11;8.23;;;1.65;;
55172;SDS011;41061;52.822;6.860;2024-01-15T04:11:37;8.55;;;1.13;;
55172;SDS011;41061;52.822;6.860;2024-01-15T04:14:03;11.18;;;1.50;;
55172;SDS011;41061;52.822;6.860;2024-01-15T04:16:30;8.13;;;1.23;;
55172;SDS011;41061;52.822;6.860;2024-01-15T04:18:56;9.30;;;1.20;;
55172;SDS011;41061;52.822;6.860;2024-01-15T04:21:22;13.00;;;1.25;;
55172;SDS011;41061;52.822;6.860;2024-01-15T04:23:48;8.45;;;1.25;;
55172;SDS011;41061;52.822;6.860;2024-01-15T04:26:14;10.88;;;1.77;;
55172;SDS011;41061;52.822;6.860;2024-01-15T04:28:40;9.25;;;1.20;;
55172;SDS011;41061;52.822;6.860;2024-01-15T04:31:06;8.55;;;0.90;;
55172;SDS011;41061;52.822;6.860;2024-01-15T04:33:32;6.63;;;1.20;;
55172;SDS011;41061;52.822;6.860;2024-01-15T04:36:01;6.35;;;1.10;;
55172;SDS011;41061;52.822;6.860;2024-01-15T04:38:27;10.23;;;1.25;;
55172;SDS011;41061;52.822;6.860;2024-01-15T04:40:53;11.07;;;1.58;;
55172;SDS011;41061;52.822;6.860;2024-01-15T04:43:19;5.75;;;1.15;;
55172;SDS011;41061;52.822;6.860;2024-01-15T04:45:45;8.27;;;0.90;;
55172;SDS011;41061;52.822;6.860;2024-01-15T04:48:11;13.60;;;1.77;;
55172;SDS011;41061;52.822;6.860;2024-01-15T04:50:37;11.15;;;1.38;;
55172;SDS011;41061;52.822;6.860;2024-01-15T04:53:03;13.50;;;1.50;;
55172;SDS011;41061;52.822;6.860;2024-01-15T04:55:29;21.40;;;3.33;;
55172;SDS011;41061;52.822;6.860;2024-01-15T04:57:56;12.38;;;1.55;;
55172;SDS011;41061;52.822;6.860;2024-01-15T05:00:22;8.35;;;1.98;;
55172;SDS011;41061;52.822;6.860;2024-01-15T05:02:48;10.57;;;1.48;;
55172;SDS011;41061;52.822;6.860;2024-01-15T05:05:14;11.40;;;1.98;;
55172;SDS011;41061;52.822;6.860;2024-01-15T05:07:40;14.48;;;3.22;;
55172;SDS011;41061;52.822;6.860;2024-01-15T05:10:06;8.20;;;1.17;;
55172;SDS011;41061;52.822;6.860;2024-01-15T05:12:33;11.30;;;1.42;;
55172;SDS011;41061;52.822;6.860;2024-01-15T05:14:59;18.08;;;1.88;;
55172;SDS011;41061;52.822;6.860;2024-01-15T05:17:34;15.75;;;1.58;;
55172;SDS011;41061;52.822;6.860;2024-01-15T05:20:00;15.35;;;1.70;;
55172;SDS011;41061;52.822;6.860;2024-01-15T05:22:26;13.13;;;1.67;;
55172;SDS011;41061;52.822;6.860;2024-01-15T05:24:52;12.57;;;2.35;;
55172;SDS011;41061;52.822;6.860;2024-01-15T05:27:18;11.85;;;1.25;;
55172;SDS011;41061;52.822;6.860;2024-01-15T05:29:44;15.45;;;1.52;;
55172;SDS011;41061;52.822;6.860;2024-01-15T05:32:10;12.35;;;2.25;;
55172;SDS011;41061;52.822;6.860;2024-01-15T05:34:37;11.30;;;1.80;;
55172;SDS011;41061;52.822;6.860;2024-01-15T05:37:03;9.32;;;1.55;;
55172;SDS011;41061;52.822;6.860;2024-01-15T05:39:29;14.43;;;2.20;;
55172;SDS011;41061;52.822;6.860;2024-01-15T05:41:55;8.85;;;1.20;;
55172;SDS011;41061;52.822;6.860;2024-01-15T05:44:21;16.65;;;1.50;;
55172;SDS011;41061;52.822;6.860;2024-01-15T05:46:47;13.27;;;1.73;;
55172;SDS011;41061;52.822;6.860;2024-01-15T05:49:13;13.35;;;1.75;;
55172;SDS011;41061;52.822;6.860;2024-01-15T05:51:39;17.00;;;1.65;;
55172;SDS011;41061;52.822;6.860;2024-01-15T05:54:05;14.10;;;1.63;;
55172;SDS011;41061;52.822;6.860;2024-01-15T05:56:31;8.15;;;1.67;;
55172;SDS011;41061;52.822;6.860;2024-01-15T05:58:57;13.00;;;1.58;;
55172;SDS011;41061;52.822;6.860;2024-01-15T06:01:23;13.60;;;1.42;;
55172;SDS011;41061;52.822;6.860;2024-01-15T06:03:49;13.77;;;2.35;;
55172;SDS011;41061;52.822;6.860;2024-01-15T06:06:15;13.23;;;2.20;;
55172;SDS011;41061;52.822;6.860;2024-01-15T06:08:41;13.98;;;1.70;;
55172;SDS011;41061;52.822;6.860;2024-01-15T06:11:07;13.48;;;1.45;;
55172;SDS011;41061;52.822;6.860;2024-01-15T06:13:33;9.80;;;1.45;;
55172;SDS011;41061;52.822;6.860;2024-01-15T06:15:59;12.07;;;1.63;;
55172;SDS011;41061;52.822;6.860;2024-01-15T06:18:25;9.20;;;1.10;;
55172;SDS011;41061;52.822;6.860;2024-01-15T06:20:51;9.82;;;1.45;;
55172;SDS011;41061;52.822;6.860;2024-01-15T06:23:17;7.63;;;1.40;;
55172;SDS011;41061;52.822;6.860;2024-01-15T06:25:43;7.68;;;1.05;;
55172;SDS011;41061;52.822;6.860;2024-01-15T06:28:09;9.95;;;3.13;;
55172;SDS011;41061;52.822;6.860;2024-01-15T06:30:36;15.85;;;2.45;;
55172;SDS011;41061;52.822;6.860;2024-01-15T06:33:02;14.52;;;1.60;;
55172;SDS011;41061;52.822;6.860;2024-01-15T06:35:28;10.32;;;1.48;;
55172;SDS011;41061;52.822;6.860;2024-01-15T06:37:54;13.52;;;1.80;;
55172;SDS011;41061;52.822;6.860;2024-01-15T06:40:20;12.27;;;1.98;;
55172;SDS011;41061;52.822;6.860;2024-01-15T06:42:45;12.48;;;1.58;;
55172;SDS011;41061;52.822;6.860;2024-01-15T06:45:11;11.95;;;1.65;;
55172;SDS011;41061;52.822;6.860;2024-01-15T06:47:37;14.70;;;2.00;;
55172;SDS011;41061;52.822;6.860;2024-01-15T06:50:02;15.32;;;1.90;;
55172;SDS011;41061;52.822;6.860;2024-01-15T06:52:29;11.07;;;1.83;;
55172;SDS011;41061;52.822;6.860;2024-01-15T06:54:55;9.50;;;1.65;;
55172;SDS011;41061;52.822;6.860;2024-01-15T06:57:22;8.95;;;1.33;;
55172;SDS011;41061;52.822;6.860;2024-01-15T06:59:47;8.05;;;1.38;;
55172;SDS011;41061;52.822;6.860;2024-01-15T07:02:16;12.55;;;1.13;;
55172;SDS011;41061;52.822;6.860;2024-01-15T07:04:41;6.68;;;1.08;;
55172;SDS011;41061;52.822;6.860;2024-01-15T07:07:07;9.30;;;1.20;;
55172;SDS011;41061;52.822;6.860;2024-01-15T07:09:33;14.95;;;1.30;;
55172;SDS011;41061;52.822;6.860;2024-01-15T07:12:02;9.40;;;0.95;;
55172;SDS011;41061;52.822;6.860;2024-01-15T07:14:30;9.15;;;1.23;;
55172;SDS011;41061;52.822;6.860;2024-01-15T07:16:56;6.20;;;1.40;;
55172;SDS011;41061;52.822;6.860;2024-01-15T07:19:22;9.45;;;1.08;;
55172;SDS011;41061;52.822;6.860;2024-01-15T07:21:47;9.18;;;1.50;;
55172;SDS011;41061;52.822;6.860;2024-01-15T07:24:13;3.33;;;0.80;;
55172;SDS011;41061;52.822;6.860;2024-01-15T07:26:39;9.65;;;1.25;;
55172;SDS011;41061;52.822;6.860;2024-01-15T07:29:05;7.03;;;1.00;;
55172;SDS011;41061;52.822;6.860;2024-01-15T07:31:30;17.77;;;1.35;;
55172;SDS011;41061;52.822;6.860;2024-01-15T07:33:57;13.05;;;1.75;;
55172;SDS011;41061;52.822;6.860;2024-01-15T07:36:23;10.48;;;1.23;;
55172;SDS011;41061;52.822;6.860;2024-01-15T07:38:48;9.00;;;1.45;;
55172;SDS011;41061;52.822;6.860;2024-01-15T07:41:14;9.85;;;1.55;;
55172;SDS011;41061;52.822;6.860;2024-01-15T07:43:40;9.63;;;1.08;;
55172;SDS011;41061;52.822;6.860;2024-01-15T07:46:05;13.48;;;2.22;;
55172;SDS011;41061;52.822;6.860;2024-01-15T07:48:32;10.20;;;1.50;;
55172;SDS011;41061;52.822;6.860;2024-01-15T07:50:57;7.47;;;1.60;;
55172;SDS011;41061;52.822;6.860;2024-01-15T07:53:23;9.32;;;1.42;;
55172;SDS011;41061;52.822;6.860;2024-01-15T07:55:49;9.50;;;2.00;;
55172;SDS011;41061;52.822;6.860;2024-01-15T07:58:15;13.75;;;1.48;;
55172;SDS011;41061;52.822;6.860;2024-01-15T08:00:43;13.40;;;1.48;;
55172;SDS011;41061;52.822;6.860;2024-01-15T08:03:10;16.73;;;1.60;;
55172;SDS011;41061;52.822;6.860;2024-01-15T08:05:36;8.82;;;1.30;;
55172;SDS011;41061;52.822;6.860;2024-01-15T08:08:04;8.05;;;1.45;;
55172;SDS011;41061;52.822;6.860;2024-01-15T08:10:30;13.05;;;1.85;;
55172;SDS011;41061;52.822;6.860;2024-01-15T08:12:56;18.65;;;2.03;;
55172;SDS011;41061;52.822;6.860;2024-01-15T08:15:21;13.63;;;1.77;;
55172;SDS011;41061;52.822;6.860;2024-01-15T08:17:47;10.38;;;1.40;;
55172;SDS011;41061;52.822;6.860;2024-01-15T08:20:13;15.73;;;1.63;;
55172;SDS011;41061;52.822;6.860;2024-01-15T08:22:38;14.30;;;1.30;;
55172;SDS011;41061;52.822;6.860;2024-01-15T08:25:04;8.18;;;0.90;;
55172;SDS011;41061;52.822;6.860;2024-01-15T08:27:30;13.68;;;1.92;;
55172;SDS011;41061;52.822;6.860;2024-01-15T08:29:56;9.43;;;1.30;;
55172;SDS011;41061;52.822;6.860;2024-01-15T08:32:22;13.68;;;1.50;;
55172;SDS011;41061;52.822;6.860;2024-01-15T08:34:47;8.55;;;1.50;;
55172;SDS011;41061;52.822;6.860;2024-01-15T08:37:17;5.22;;;1.10;;
55172;SDS011;41061;52.822;6.860;2024-01-15T08:39:43;18.88;;;1.40;;
55172;SDS011;41061;52.822;6.860;2024-01-15T08:42:08;10.35;;;1.88;;
55172;SDS011;41061;52.822;6.860;2024-01-15T08:44:34;14.85;;;1.60;;
55172;SDS011;41061;52.822;6.860;2024-01-15T08:47:00;9.43;;;1.75;;
55172;SDS011;41061;52.822;6.860;2024-01-15T08:49:26;16.35;;;2.45;;
55172;SDS011;41061;52.822;6.860;2024-01-15T08:51:51;12.05;;;1.60;;
55172;SDS011;41061;52.822;6.860;2024-01-15T08:54:17;16.40;;;2.00;;
55172;SDS011;41061;52.822;6.860;2024-01-15T08:56:43;9.82;;;1.65;;
55172;SDS011;41061;52.822;6.860;2024-01-15T08:59:08;13.48;;;1.60;;
55172;SDS011;41061;52.822;6.860;2024-01-15T09:01:37;12.55;;;1.40;;
55172;SDS011;41061;52.822;6.860;2024-01-15T09:04:04;17.10;;;2.00;;
55172;SDS011;41061;52.822;6.860;2024-01-15T09:06:30;14.20;;;2.95;;
55172;SDS011;41061;52.822;6.860;2024-01-15T09:08:56;11.50;;;1.75;;
55172;SDS011;41061;52.822;6.860;2024-01-15T09:11:22;8.93;;;1.40;;
55172;SDS011;41061;52.822;6.860;2024-01-15T09:13:48;11.63;;;1.58;;
55172;SDS011;41061;52.822;6.860;2024-01-15T09:16:14;15.30;;;1.35;;
55172;SDS011;41061;52.822;6.860;2024-01-15T09:18:41;12.80;;;1.88;;
55172;SDS011;41061;52.822;6.860;2024-01-15T09:21:07;14.68;;;2.05;;
55172;SDS011;41061;52.822;6.860;2024-01-15T09:23:33;13.02;;;1.40;;
55172;SDS011;41061;52.822;6.860;2024-01-15T09:26:00;17.70;;;1.60;;
55172;SDS011;41061;52.822;6.860;2024-01-15T09:28:26;11.27;;;2.20;;
55172;SDS011;41061;52.822;6.860;2024-01-15T09:30:52;17.67;;;1.90;;
55172;SDS011;41061;52.822;6.860;2024-01-15T09:33:19;14.05;;;1.73;;
55172;SDS011;41061;52.822;6.860;2024-01-15T09:35:45;14.18;;;1.58;;
55172;SDS011;41061;52.822;6.860;2024-01-15T09:38:11;13.20;;;1.35;;
55172;SDS011;41061;52.822;6.860;2024-01-15T09:40:38;9.98;;;2.05;;
55172;SDS011;41061;52.822;6.860;2024-01-15T09:43:04;10.55;;;1.65;;
55172;SDS011;41061;52.822;6.860;2024-01-15T09:45:30;10.88;;;1.95;;
55172;SDS011;41061;52.822;6.860;2024-01-15T09:47:57;13.35;;;2.08;;
55172;SDS011;41061;52.822;6.860;2024-01-15T09:50:23;13.15;;;1.95;;
55172;SDS011;41061;52.822;6.860;2024-01-15T09:52:49;14.82;;;2.95;;
55172;SDS011;41061;52.822;6.860;2024-01-15T09:55:17;12.23;;;1.52;;
55172;SDS011;41061;52.822;6.860;2024-01-15T09:57:43;12.65;;;1.20;;
55172;SDS011;41061;52.822;6.860;2024-01-15T10:00:11;14.32;;;2.13;;
55172;SDS011;41061;52.822;6.860;2024-01-15T10:02:37;12.20;;;1.70;;
55172;SDS011;41061;52.822;6.860;2024-01-15T10:05:03;11.15;;;1.88;;
55172;SDS011;41061;52.822;6.860;2024-01-15T10:07:31;6.82;;;1.70;;
55172;SDS011;41061;52.822;6.860;2024-01-15T10:10:00;9.80;;;1.55;;
55172;SDS011;41061;52.822;6.860;2024-01-15T10:12:28;9.73;;;1.52;;
55172;SDS011;41061;52.822;6.860;2024-01-15T10:14:57;15.02;;;2.78;;
55172;SDS011;41061;52.822;6.860;2024-01-15T10:17:24;9.75;;;1.67;;
55172;SDS011;41061;52.822;6.860;2024-01-15T10:19:53;5.35;;;1.73;;
55172;SDS011;41061;52.822;6.860;2024-01-15T10:22:19;12.70;;;2.13;;
55172;SDS011;41061;52.822;6.860;2024-01-15T10:24:45;3.90;;;1.38;;
55172;SDS011;41061;52.822;6.860;2024-01-15T10:27:14;7.20;;;1.08;;
55172;SDS011;41061;52.822;6.860;2024-01-15T10:29:41;9.98;;;1.52;;
55172;SDS011;41061;52.822;6.860;2024-01-15T10:32:07;10.75;;;1.15;;
55172;SDS011;41061;52.822;6.860;2024-01-15T10:34:36;8.25;;;1.25;;
55172;SDS011;41061;52.822;6.860;2024-01-15T10:37:04;7.85;;;1.40;;
55172;SDS011;41061;52.822;6.860;2024-01-15T10:39:30;7.13;;;1.38;;
55172;SDS011;41061;52.822;6.860;2024-01-15T10:41:56;11.95;;;1.52;;
55172;SDS011;41061;52.822;6.860;2024-01-15T10:44:22;7.00;;;1.23;;
55172;SDS011;41061;52.822;6.860;2024-01-15T10:46:48;7.35;;;1.17;;
55172;SDS011;41061;52.822;6.860;2024-01-15T10:49:15;9.98;;;1.58;;
55172;SDS011;41061;52.822;6.860;2024-01-15T10:51:44;9.25;;;1.38;;
55172;SDS011;41061;52.822;6.860;2024-01-15T10:54:11;9.85;;;1.35;;
55172;SDS011;41061;52.822;6.860;2024-01-15T10:56:39;7.25;;;2.08;;
55172;SDS011;41061;52.822;6.860;2024-01-15T10:59:06;11.25;;;1.23;;
55172;SDS011;41061;52.822;6.860;2024-01-15T11:01:33;8.25;;;1.40;;
55172;SDS011;41061;52.822;6.860;2024-01-15T11:03:59;9.73;;;1.13;;
55172;SDS011;41061;52.822;6.860;2024-01-15T11:06:25;8.13;;;1.38;;
55172;SDS011;41061;52.822;6.860;2024-01-15T11:08:54;7.35;;;1.20;;
55172;SDS011;41061;52.822;6.860;2024-01-15T11:11:21;6.93;;;1.15;;
55172;SDS011;41061;52.822;6.860;2024-01-15T11:13:48;8.68;;;0.95;;
55172;SDS011;41061;52.822;6.860;2024-01-15T11:16:17;9.90;;;1.33;;
55172;SDS011;41061;52.822;6.860;2024-01-15T11:21:25;7.57;;;1.67;;
55172;SDS011;41061;52.822;6.860;2024-01-15T11:29:00;6.70;;;0.98;;
55172;SDS011;41061;52.822;6.860;2024-01-15T11:34:07;5.20;;;1.02;;
55172;SDS011;41061;52.822;6.860;2024-01-15T11:41:56;5.50;;;0.65;;
55172;SDS011;41061;52.822;6.860;2024-01-15T11:44:23;3.03;;;0.85;;
55172;SDS011;41061;52.822;6.860;2024-01-15T11:47:02;1.02;;;0.30;;
55172;SDS011;41061;52.822;6.860;2024-01-15T11:52:13;6.65;;;0.55;;
55172;SDS011;41061;52.822;6.860;2024-01-15T11:54:41;1.13;;;0.30;;
55172;SDS011;41061;52.822;6.860;2024-01-15T11:57:15;5.70;;;0.65;;
55172;SDS011;41061;52.822;6.860;2024-01-15T11:59:44;3.53;;;0.40;;
55172;SDS011;41061;52.822;6.860;2024-01-15T12:02:11;2.55;;;0.60;;
55172;SDS011;41061;52.822;6.860;2024-01-15T12:04:38;3.78;;;1.27;;
55172;SDS011;41061;52.822;6.860;2024-01-15T12:07:04;3.53;;;0.70;;
55172;SDS011;41061;52.822;6.860;2024-01-15T12:09:30;8.57;;;0.70;;
55172;SDS011;41061;52.822;6.860;2024-01-15T12:11:59;2.42;;;0.50;;
55172;SDS011;41061;52.822;6.860;2024-01-15T12:14:30;2.42;;;0.50;;
55172;SDS011;41061;52.822;6.860;2024-01-15T12:16:57;4.03;;;0.38;;
55172;SDS011;41061;52.822;6.860;2024-01-15T12:19:23;4.38;;;0.80;;
55172;SDS011;41061;52.822;6.860;2024-01-15T12:21:52;2.05;;;0.55;;
55172;SDS011;41061;52.822;6.860;2024-01-15T12:24:19;2.17;;;0.30;;
55172;SDS011;41061;52.822;6.860;2024-01-15T12:26:45;1.17;;;0.47;;
55172;SDS011;41061;52.822;6.860;2024-01-15T12:29:11;2.63;;;0.75;;
55172;SDS011;41061;52.822;6.860;2024-01-15T12:31:37;3.35;;;0.50;;
55172;SDS011;41061;52.822;6.860;2024-01-15T12:34:03;2.90;;;0.60;;
55172;SDS011;41061;52.822;6.860;2024-01-15T12:36:31;2.70;;;0.40;;
55172;SDS011;41061;52.822;6.860;2024-01-15T12:39:00;0.10;;;0.10;;
55172;SDS011;41061;52.822;6.860;2024-01-15T12:41:26;2.63;;;0.35;;
55172;SDS011;41061;52.822;6.860;2024-01-15T12:43:52;0.55;;;0.20;;
55172;SDS011;41061;52.822;6.860;2024-01-15T12:46:18;1.33;;;0.45;;
55172;SDS011;41061;52.822;6.860;2024-01-15T12:48:44;3.78;;;0.60;;
55172;SDS011;41061;52.822;6.860;2024-01-15T12:51:10;3.78;;;0.20;;
55172;SDS011;41061;52.822;6.860;2024-01-15T12:53:36;2.63;;;0.50;;
55172;SDS011;41061;52.822;6.860;2024-01-15T12:56:03;5.45;;;0.50;;
55172;SDS011;41061;52.822;6.860;2024-01-15T12:58:29;1.63;;;0.40;;
55172;SDS011;41061;52.822;6.860;2024-01-15T13:00:55;3.85;;;0.95;;
55172;SDS011;41061;52.822;6.860;2024-01-15T13:03:22;2.55;;;0.45;;
55172;SDS011;41061;52.822;6.860;2024-01-15T13:05:48;5.88;;;0.65;;
55172;SDS011;41061;52.822;6.860;2024-01-15T13:08:15;5.72;;;0.90;;
55172;SDS011;41061;52.822;6.860;2024-01-15T13:10:42;3.53;;;0.50;;
55172;SDS011;41061;52.822;6.860;2024-01-15T13:13:08;3.75;;;1.33;;
55172;SDS011;41061;52.822;6.860;2024-01-15T13:15:34;7.00;;;1.02;;
55172;SDS011;41061;52.822;6.860;2024-01-15T13:18:00;7.22;;;0.75;;
55172;SDS011;41061;52.822;6.860;2024-01-15T13:20:26;3.85;;;0.75;;
55172;SDS011;41061;52.822;6.860;2024-01-15T13:22:52;7.22;;;1.02;;
55172;SDS011;41061;52.822;6.860;2024-01-15T13:25:18;12.98;;;1.35;;
55172;SDS011;41061;52.822;6.860;2024-01-15T13:27:45;4.75;;;0.60;;
55172;SDS011;41061;52.822;6.860;2024-01-15T13:30:11;5.50;;;0.95;;
55172;SDS011;41061;52.822;6.860;2024-01-15T13:32:38;5.03;;;1.15;;
55172;SDS011;41061;52.822;6.860;2024-01-15T13:35:04;11.23;;;1.05;;
55172;SDS011;41061;52.822;6.860;2024-01-15T13:37:34;6.32;;;0.80;;
55172;SDS011;41061;52.822;6.860;2024-01-15T13:40:02;8.98;;;1.10;;
55172;SDS011;41061;52.822;6.860;2024-01-15T13:42:28;9.15;;;1.00;;
55172;SDS011;41061;52.822;6.860;2024-01-15T13:44:54;11.13;;;1.40;;
55172;SDS011;41061;52.822;6.860;2024-01-15T13:47:20;7.38;;;1.00;;
55172;SDS011;41061;52.822;6.860;2024-01-15T13:49:47;8.77;;;1.27;;
55172;SDS011;41061;52.822;6.860;2024-01-15T13:52:13;13.00;;;1.85;;
55172;SDS011;41061;52.822;6.860;2024-01-15T13:54:39;7.03;;;1.67;;
55172;SDS011;41061;52.822;6.860;2024-01-15T13:57:06;5.18;;;0.95;;
55172;SDS011;41061;52.822;6.860;2024-01-15T13:59:32;4.18;;;0.70;;
55172;SDS011;41061;52.822;6.860;2024-01-15T14:01:58;7.63;;;0.75;;
55172;SDS011;41061;52.822;6.860;2024-01-15T14:04:24;5.32;;;0.63;;
55172;SDS011;41061;52.822;6.860;2024-01-15T14:06:50;5.00;;;0.98;;
55172;SDS011;41061;52.822;6.860;2024-01-15T14:09:16;6.20;;;0.73;;
55172;SDS011;41061;52.822;6.860;2024-01-15T14:11:42;3.42;;;0.40;;
55172;SDS011;41061;52.822;6.860;2024-01-15T14:14:08;2.42;;;0.60;;
55172;SDS011;41061;52.822;6.860;2024-01-15T14:16:35;3.22;;;0.50;;
55172;SDS011;41061;52.822;6.860;2024-01-15T14:19:01;5.07;;;0.82;;
55172;SDS011;41061;52.822;6.860;2024-01-15T14:21:27;3.70;;;0.60;;
55172;SDS011;41061;52.822;6.860;2024-01-15T14:23:53;8.77;;;0.90;;
55172;SDS011;41061;52.822;6.860;2024-01-15T14:26:19;3.90;;;1.00;;
55172;SDS011;41061;52.822;6.860;2024-01-15T14:28:48;6.05;;;0.73;;
55172;SDS011;41061;52.822;6.860;2024-01-15T14:31:14;8.95;;;1.27;;
55172;SDS011;41061;52.822;6.860;2024-01-15T14:33:40;6.25;;;0.88;;
55172;SDS011;41061;52.822;6.860;2024-01-15T14:36:07;10.38;;;1.38;;
55172;SDS011;41061;52.822;6.860;2024-01-15T14:38:33;11.75;;;1.27;;
55172;SDS011;41061;52.822;6.860;2024-01-15T14:40:59;6.85;;;1.20;;
55172;SDS011;41061;52.822;6.860;2024-01-15T14:43:25;8.68;;;1.45;;
55172;SDS011;41061;52.822;6.860;2024-01-15T14:45:52;8.15;;;1.33;;
55172;SDS011;41061;52.822;6.860;2024-01-15T14:48:18;7.15;;;1.05;;
55172;SDS011;41061;52.822;6.860;2024-01-15T14:50:44;10.13;;;1.55;;
55172;SDS011;41061;52.822;6.860;2024-01-15T14:53:10;10.10;;;2.35;;